www.dot.state.il.us - /desenv/hwystds/pdf04/


[To Parent Directory]

Monday, January 26, 2004 7:57 PM 640493 204-000001-04_StandardSymbolsAbbreviations&Patterns.pdf
Monday, January 26, 2004 7:58 PM 115448 204-001001_AreasOfReinfRebars.pdf
Monday, January 26, 2004 7:59 PM 146689 204-001006_DecimalOfInch&Foot.pdf
Monday, January 26, 2004 8:00 PM 58973 204-202001_EarthMedDitchCheck.pdf
Monday, January 26, 2004 8:01 PM 262309 204-280001-02_TempErosionCntrlSystems.pdf
Monday, January 26, 2004 8:01 PM 115245 204-285001-01_FabricFormedConcRevetmentMat.pdf
Tuesday, January 27, 2004 2:43 PM 101927 204-353001-01_PCCBseCseWithBitConcBind&SurfCses.pdf
Monday, January 26, 2004 8:14 PM 235400 204-406001-02_EntrRampTerminalFlexiblePvmt.pdf
Monday, January 26, 2004 8:15 PM 366694 204-406101-02_ExitRampTerminalFlexiblePvmt.pdf
Monday, January 26, 2004 8:16 PM 83480 204-406201_MailboxTurnout.pdf
Monday, January 26, 2004 8:17 PM 226582 204-420001-05_PavementJoints.pdf
Monday, January 26, 2004 8:17 PM 96950 204-420101-02_24ftJointedPCCPvmt.pdf
Monday, January 26, 2004 8:18 PM 114490 204-420106-02_36ftJointedPCCPvmt.pdf
Monday, January 26, 2004 8:18 PM 284814 204-420111-01_PCCPvmtRoundouts.pdf
Monday, January 26, 2004 8:19 PM 292202 204-420201-04_EntrRampTerm-PCCAdjToPCC.pdf
Monday, January 26, 2004 8:20 PM 293658 204-420206-05_EntrRampTerm-PCCAdjToCRC.pdf
Monday, January 26, 2004 8:21 PM 443184 204-420301-03_ExitRampTerm-PCCAdjToPCC.pdf
Monday, January 26, 2004 8:22 PM 437511 204-420306-05_ExitRampTerm-PCCAdjToCRC.pdf
Monday, January 26, 2004 8:23 PM 454844 204-420401-05_BridgeApproachPvmt.pdf
Monday, January 26, 2004 8:24 PM 100512 204-420501-02_PCCPvmt&PCCBseCseAdjToRRGradeXing.pdf
Monday, January 26, 2004 8:24 PM 77896 204-420601-03_24ftPCCPvmt.pdf
Monday, January 26, 2004 8:25 PM 114825 204-420701-01_PavementFabric.pdf
Monday, January 26, 2004 8:25 PM 124373 204-421001-01_BarReinfForCRCPvmt.pdf
Monday, January 26, 2004 8:26 PM 431166 204-421101-05_24ftCRCPvmt-wWideFlangeBeamTermJt.pdf
Monday, January 26, 2004 9:00 PM 438611 204-421106-05_36ftCRCPvmt-wWideFlangeBeamTermJt.pdf
Monday, January 26, 2004 9:01 PM 318769 204-421201-04_24ftCRCPvmt-wLugSys.pdf
Monday, January 26, 2004 9:01 PM 342198 204-421206-04_36ftCRCPvmt-wLugSys.pdf
Monday, January 26, 2004 9:02 PM 199254 204-424001-03_CurbRampsForSidewalk.pdf
Monday, January 26, 2004 9:02 PM 188238 204-442001-02_ClassAPatches.pdf
Monday, January 26, 2004 9:03 PM 279601 204-442101-05_ClassBPatches.pdf
Monday, January 26, 2004 9:03 PM 138619 204-442201-01_ClassC&DPatches.pdf
Monday, January 26, 2004 9:04 PM 117343 204-482001_BitShldAdjToFlexPvmt.pdf
Monday, January 26, 2004 9:04 PM 115560 204-482006-01_BitShldAdjToRigidPvmt.pdf
Monday, January 26, 2004 9:05 PM 221279 204-482011-01_BitShldStrips(Shlds)wResurfOrWiden&ResurfProj.pdf
Monday, January 26, 2004 9:05 PM 163770 204-483001-01_PCCShld.pdf
Tuesday, January 27, 2004 8:36 AM 101804 204-503001-02_ConcParapetSlip-FormingOpt.pdf
Tuesday, January 27, 2004 8:38 AM 264778 204-509001_TubularThrieBeamRetrofitRailForBridge.pdf
Tuesday, January 27, 2004 8:52 AM 122999 204-515001-02_NamePlateForBridge.pdf
Tuesday, January 27, 2004 8:54 AM 107204 204-542001_ReinfConcEndSect-wParallelWngwalls12-48inDiaRtAngle.pdf
Tuesday, January 27, 2004 8:54 AM 139192 204-542101_ReinfConcEndSectForPipeCulv15-36inDiaRtAngle.pdf
Tuesday, January 27, 2004 8:55 AM 242457 204-542106_ReinfConcEndSectForPipeCulv42-60inDiaRtAngle.pdf
Tuesday, January 27, 2004 8:55 AM 264924 204-542111_ReinfConcEndSectForPipeCulv66-84inDiaRtAngle.pdf
Tuesday, January 27, 2004 8:56 AM 326356 204-542116_ReinfConcEndSectForMultPipeCulv15-36inDiaRtAngle.pdf
Tuesday, January 27, 2004 8:57 AM 351105 204-542121_ReinfConcEndSectForMultPipeCulv42-60inDiaRtAngle.pdf
Tuesday, January 27, 2004 8:58 AM 1337945 204-542201_ReinfConcEndSectForPipeCulv15-36inDiaSkewed.pdf
Tuesday, January 27, 2004 9:03 AM 903689 204-542206_ReinfConcEndSectForPipeCulv42-60inDiaSkewed.pdf
Tuesday, January 27, 2004 9:03 AM 144977 204-542301_PrecastReinfConcFlaredEndSect.pdf
Tuesday, January 27, 2004 9:04 AM 120992 204-542306_PrecastReinfConcEllipticalFlaredEndSect.pdf
Tuesday, January 27, 2004 9:04 AM 286695 204-542311_GratingForConcFlaredEndSection24-54inPipe.pdf
Tuesday, January 27, 2004 9:04 AM 176715 204-542401_MetalEndSectForPipeCulv.pdf
Tuesday, January 27, 2004 9:05 AM 175449 204-542406_MetalEndSectForPipeArch.pdf
Tuesday, January 27, 2004 9:05 AM 181065 204-542501_InletBoxTypeA24in.pdf
Tuesday, January 27, 2004 9:05 AM 208491 204-542506_InletBoxTypeB24in.pdf
Tuesday, January 27, 2004 9:06 AM 207145 204-542511_InletBoxTypeC24in.pdf
Tuesday, January 27, 2004 9:08 AM 224842 204-542516_InletBoxTypeD24in.pdf
Tuesday, January 27, 2004 9:08 AM 225954 204-542521_InletBoxTypeE24in.pdf
Tuesday, January 27, 2004 9:09 AM 254257 204-542526_InletBoxTypeF24in.pdf
Tuesday, January 27, 2004 9:09 AM 225550 204-542531-01_InletBoxTypeG24in.pdf
Tuesday, January 27, 2004 9:10 AM 239934 204-542536_InletBoxTypeA36in.pdf
Tuesday, January 27, 2004 9:10 AM 240418 204-542541_InletBoxTypeA48in.pdf
Tuesday, January 27, 2004 9:10 AM 141926 204-542546_FlushInletBoxForMedian.pdf
Tuesday, January 27, 2004 9:11 AM 74588 204-542601_RCPipeElbow.pdf
Tuesday, January 27, 2004 9:11 AM 166642 204-542606_RCPipeTee.pdf
Tuesday, January 27, 2004 11:34 AM 266503 204-601001_SubSurfDrains.pdf
Tuesday, January 27, 2004 11:34 AM 63676 204-601101_ConcHdwForPipeDrain.pdf
Tuesday, January 27, 2004 11:35 AM 132385 204-602001_CatchBasin-TypeA.pdf
Tuesday, January 27, 2004 11:35 AM 119787 204-602006_CatchBasin-TypeB.pdf
Tuesday, January 27, 2004 11:36 AM 71075 204-602011_CatchBasin-TypeC.pdf
Tuesday, January 27, 2004 11:36 AM 145380 204-602016_CatchBasin-TypeD.pdf
Saturday, March 06, 2004 9:41 AM 212719 204-602101-01_DrainStruc-Type1&2&3.pdf
Saturday, March 06, 2004 9:41 AM 210959 204-602106_DrainStruc-Type4&5&6.pdf
Tuesday, January 27, 2004 11:36 AM 66596 204-602301_Inlet-TypeA.pdf
Tuesday, January 27, 2004 11:37 AM 123070 204-602306_Inlet-TypeB.pdf
Tuesday, January 27, 2004 11:37 AM 109027 204-602401_Manhole-TypeA.pdf
Tuesday, January 27, 2004 11:37 AM 197432 204-602406-01_Manhole-TypeA72inDia.pdf
Tuesday, January 27, 2004 11:38 AM 104821 204-602501_ValveVault-TypeA.pdf
Tuesday, January 27, 2004 11:38 AM 113395 204-602601_PrecastReinfConcFlatSlabTop.pdf
Tuesday, January 27, 2004 11:38 AM 57172 204-602701_CastIronSteps.pdf
Tuesday, January 27, 2004 11:38 AM 70899 204-604001-02_Frame&Lids-Type1.pdf
Tuesday, January 27, 2004 11:38 AM 84914 204-604006-02_Frame&GrateType3.pdf
Tuesday, January 27, 2004 11:39 AM 90782 204-604011-02_Frame&GrateType3V.pdf
Tuesday, January 27, 2004 11:39 AM 53928 204-604016-01_Frame&GrateType4.pdf
Tuesday, January 27, 2004 11:39 AM 91860 204-604021-01_BaseFrame&LidsType5.pdf
Tuesday, January 27, 2004 11:39 AM 71835 204-604026-01_Frame&GrateType6.pdf
Tuesday, January 27, 2004 11:40 AM 37966 204-604031-01_GrateType7.pdf
Tuesday, January 27, 2004 11:40 AM 42341 204-604036-01_GrateType8.pdf
Tuesday, January 27, 2004 11:40 AM 60716 204-604041-01_Frame&GrateType9.pdf
Tuesday, January 27, 2004 11:40 AM 61131 204-604046-01_Frame&GrateType10.pdf
Tuesday, January 27, 2004 11:40 AM 80781 204-604051-01_Frame&GrateType11.pdf
Tuesday, January 27, 2004 11:41 AM 93508 204-604056-01_Frame&GrateType11V.pdf
Tuesday, January 27, 2004 11:41 AM 66719 204-604061-01_Frame&GrateType12.pdf
Tuesday, January 27, 2004 11:41 AM 96180 204-604066-01_Frame&LidType15.pdf
Tuesday, January 27, 2004 11:41 AM 70946 204-604071-02_Frame&GrateType20.pdf
Tuesday, January 27, 2004 11:42 AM 94861 204-604076-02_Frame&GrateType21.pdf
Tuesday, January 27, 2004 11:42 AM 83646 204-604081-02_Frame&GrateType22.pdf
Tuesday, January 27, 2004 11:42 AM 97450 204-604086-01_Frame&GrateType23.pdf
Tuesday, January 27, 2004 11:42 AM 93796 204-604091-01_Frame&GrateType24.pdf
Tuesday, January 27, 2004 11:42 AM 107533 204-604101_MedianInletFor24inRCPipe.pdf
Tuesday, January 27, 2004 11:43 AM 112586 204-604106_MedianInletFor36inRCPipe.pdf
Tuesday, January 27, 2004 11:43 AM 276500 204-606001-02_ConcCurbTypeB&ComboConcC&G.pdf
Tuesday, January 27, 2004 11:43 AM 278033 204-606006_OutletsForConcC&G-TypeB-6.24.pdf
Tuesday, January 27, 2004 11:44 AM 210909 204-606101-01_TypeAGut-InlOutl&Entr.pdf
Tuesday, January 27, 2004 11:44 AM 123335 204-606106-02_OutlType1ForTypeAGut.pdf
Tuesday, January 27, 2004 11:44 AM 135113 204-606111-01_OutlType2ForTypeAGut.pdf
Tuesday, January 27, 2004 11:44 AM 197828 204-606201_TypeBGut-InlOutl&Entr.pdf
Tuesday, January 27, 2004 11:44 AM 117425 204-606206-01_OutlType1ForTypeBGut.pdf
Tuesday, January 27, 2004 11:45 AM 133339 204-606211-01_OutlType2ForTypeBGut.pdf
Tuesday, January 27, 2004 11:45 AM 302914 204-606301-02_PCCIslands&Medians.pdf
Tuesday, January 27, 2004 11:45 AM 113248 204-606306-01_CorrugatedPCCMedians.pdf
Tuesday, January 27, 2004 11:45 AM 145960 204-606401_PavedDitch.pdf
Tuesday, January 27, 2004 11:47 AM 263912 204-609001-02_BridgeApproachShldPvmt&Drain.pdf
Tuesday, January 27, 2004 11:47 AM 253904 204-609006-02_BridgeApproachPvmt(DrainDetail).pdf
Tuesday, January 27, 2004 11:48 AM 252181 204-610001-02_ShldInletWithCurb.pdf
Tuesday, January 27, 2004 11:54 AM 391959 204-630001-04_SteelPlateBeamGrdrail.pdf
Tuesday, January 27, 2004 11:55 AM 189256 204-630101-04_GuardrailMountedOnExistCulv.pdf
Tuesday, January 27, 2004 11:55 AM 94561 204-630201-02_PCC-BitStbl@SteelPlateBeamGrdRail.pdf
Tuesday, January 27, 2004 11:56 AM 125931 204-630301-02_ShldWidenForType1GrdrailTerms.pdf
Tuesday, January 27, 2004 11:56 AM 85879 204-631006-03_TrafBarTermType1B.pdf
Tuesday, January 27, 2004 11:57 AM 115013 204-631011-02_TrafBarTermType2.pdf
Tuesday, January 27, 2004 11:57 AM 172822 204-631026-02_TrafBarTermType5&5A.pdf
Tuesday, January 27, 2004 11:57 AM 229027 204-631031-05_TrafBarTermType6.pdf
Tuesday, January 27, 2004 11:58 AM 270196 204-631032-01_TrafBarTermType6A.pdf
Tuesday, January 27, 2004 11:58 AM 172770 204-631033-01 TrafBarTermType6B.pdf
Tuesday, January 27, 2004 11:58 AM 136547 204-631036-04_TrafBarTermType8.pdf
Tuesday, January 27, 2004 11:59 AM 132666 204-631041-01_TrafBarTermType9.pdf
Tuesday, January 27, 2004 11:59 AM 103473 204-631046-02_TrafBarTermType10.pdf
Tuesday, January 27, 2004 11:59 AM 142335 204-631051-01_TrafBarTermType11.pdf
Tuesday, January 27, 2004 11:59 AM 121692 204-631056-01_TrafBarTermType12.pdf
Tuesday, January 27, 2004 12:00 PM 204797 204-635001_Delineators.pdf
Tuesday, January 27, 2004 12:08 PM 90254 204-635006-02_Reflector&TermMrkrPlacemnt.pdf
Tuesday, January 27, 2004 12:09 PM 166549 204-635011-01_ReflectorMrkr&MountDetails.pdf
Tuesday, January 27, 2004 12:10 PM 384207 204-636001_CableRdGrd-SingleStrand.pdf
Tuesday, January 27, 2004 12:10 PM 156112 204-637001-02_ConcBarrierDblFace32in.pdf
Tuesday, January 27, 2004 12:10 PM 154080 204-637006_ConcBarrierDblFace42in.pdf
Tuesday, January 27, 2004 12:10 PM 89545 204-638001-01_GlareScreenBlades.pdf
Tuesday, January 27, 2004 12:11 PM 60980 204-638101-01_ConcGlareScreen.pdf
Tuesday, January 27, 2004 12:11 PM 206466 204-639001_Sightscrn-PrecstPrestressConcPanelWall.pdf
Tuesday, January 27, 2004 12:11 PM 268068 204-640001_Sightscrn-ChainLinkFence.pdf
Tuesday, January 27, 2004 12:11 PM 115774 204-641001_Sightscrn-CedarStckadeFenceTypeS.pdf
Tuesday, January 27, 2004 12:12 PM 108848 204-641006_Sightscrn-WoodPlankFenceTypeP.pdf
Tuesday, January 27, 2004 12:12 PM 91312 204-642001_ShldRumbleStrips.pdf
Tuesday, January 27, 2004 12:17 PM 452255 204-664001-01_ChainLinkFence.pdf
Tuesday, January 27, 2004 12:17 PM 552190 204-665001-01_WovenWireFence.pdf
Tuesday, January 27, 2004 12:17 PM 84509 204-666001_ROWMrkrs.pdf
Tuesday, January 27, 2004 12:18 PM 59971 204-667001_DrainageMrkrs.pdf
Tuesday, January 27, 2004 12:18 PM 92973 204-667101_PermanentSurveyMrkrs.pdf
Tuesday, January 27, 2004 12:18 PM 45511 204-668001 _MethOfResetting-USGS&NGS-Benchmarks.pdf
Tuesday, January 27, 2004 12:21 PM 51565 204-701001_OffRdOp-2L2W-15ftMinFromEOP-45MPH+.pdf
Tuesday, January 27, 2004 12:21 PM 103136 204-701006-01_OffRdOp-2L2W-15ftToEOP-45MPH+.pdf
Tuesday, January 27, 2004 12:22 PM 80460 204-701011_OffRdMovingOp-2L2W-DayOnly-45MPH+.pdf
Tuesday, January 27, 2004 12:22 PM 85447 204-701101_OffRdOp-MultiLn-LessThan15ft-45MPH+.pdf
Tuesday, January 27, 2004 12:22 PM 55541 204-701106_OffRdOp-MultiLn-MoreThan15ft-45MPH+.pdf
Tuesday, January 27, 2004 12:22 PM 116427 204-701201-01_LnClosure2L2W-DayOnlyOnRdTo24inOffRd45MPH+.pdf
Tuesday, January 27, 2004 12:22 PM 85262 204-701206_LnClosure2L2W-NightOnlyOnRdTo24inOffRd45MPH+.pdf
Tuesday, January 27, 2004 12:23 PM 95169 204-701301-01_LnClosure2L2W-ShortTimeOp.pdf
Tuesday, January 27, 2004 12:23 PM 95391 204-701306_LnClosure2L2W-SlowMoveOpDayOnly45MPH+.pdf
Tuesday, January 27, 2004 12:23 PM 81284 204-701311-02_LnClosure2L2W-MovingOpDayOnly.pdf
Tuesday, January 27, 2004 12:23 PM 182081 204-701316-02_LnClosure2L2W-BridgeRepair45MPH+.pdf
Tuesday, January 27, 2004 12:23 PM 214226 204-701321-07_LnClosure2L2W-BridgeRepair+Barrier.pdf
Tuesday, January 27, 2004 12:24 PM 115264 204-701326-01_LnClosure2L2W-PvmtWidening45MPH+.pdf
Tuesday, January 27, 2004 12:24 PM 138190 204-701331-01_LnClosure2L2W+RunAround45MPH+.pdf
Tuesday, January 27, 2004 12:24 PM 149477 204-701336-03_LnClosure2L2W-WorkAreasInSeries45MPH+.pdf
Wednesday, April 07, 2004 8:26 AM 108451 204-701400-01_ApprchToLnClosure-FrwayExpway.pdf
Wednesday, April 07, 2004 8:48 AM 141776 204-701401-02_LnClosureFrwayExpway.pdf
Wednesday, April 07, 2004 8:50 AM 113984 204-701402-05_LnClosureFrwayExpway+Barrier.pdf
Wednesday, April 07, 2004 8:51 AM 115776 204-701406-04_LnClosureFrwayExpway-DayOpOnly.pdf
Tuesday, January 27, 2004 12:25 PM 247275 204-701411-02_LnClosureMultiLn-EntrOrExitRamp45MPH+.pdf
Wednesday, April 07, 2004 8:52 AM 129893 204-701416-05_LnClosureFrwayExpway+Crossover&Barrier.pdf
Wednesday, April 07, 2004 8:53 AM 129587 204-701421-01_LnClosureMultiLn-DayOpOnly45-55MPH.pdf
Wednesday, April 07, 2004 9:00 AM 154234 204-701422-01_LnClosureMultiLn-45-55MPH.pdf
Wednesday, April 07, 2004 9:01 AM 148469 204-701423-01_LnClosureMultiLn+Barrier45-55MPH.pdf
Tuesday, January 27, 2004 12:25 PM 143837 204-701426-01_LnClosureMultiLn-IntermittantOrMovingOp45MPH+.pdf
Wednesday, April 07, 2004 9:01 AM 158252 204-701431-03_LnClosureMultiLnUndivided+Crossover45-55MPH.pdf
Tuesday, January 27, 2004 12:26 PM 113111 204-701501-02_UrbanLnClosure2L2W-Undivided.pdf
Tuesday, January 27, 2004 12:27 PM 158547 204-701502_UrbanLnClosure2L2W+BidirectLeftTurnLn.pdf
Tuesday, January 27, 2004 12:27 PM 142635 204-701601-03_UrbanLnClosureMultiLn1W2W+NontrvsableMed.pdf
Tuesday, January 27, 2004 12:29 PM 283690 204-701602-01_UrbanLnClosureMultiLn2W+BidirectLeftTurnLn.pdf
Tuesday, January 27, 2004 12:30 PM 159171 204-701606-03_UrbanLnClosureMultiLn2W+MountableMed.pdf
Tuesday, January 27, 2004 12:30 PM 129311 204-701701-03_UrbanLnClosureMultiLnIntersection.pdf
Tuesday, January 27, 2004 12:30 PM 115779 204-701801-03_LnClosureMultiLn1W2W+CrosswalkOrSWClosure.pdf
Saturday, March 06, 2004 9:43 AM 266960 204-702001-04_TrafCntrlDevices.pdf
Tuesday, January 27, 2004 12:31 PM 285327 204-704001-02_TempConcBarrier.pdf
Tuesday, January 27, 2004 12:32 PM 85098 204-720001_SignPanelMountDetails.pdf
Tuesday, January 27, 2004 12:38 PM 202083 204-720006_SignPanelErectDetails.pdf
Tuesday, January 27, 2004 12:39 PM 78871 204-720011_MetalPostsForSignsMrkrs&Delineators.pdf
Tuesday, January 27, 2004 12:39 PM 105298 204-720016-01_MastArmMountedStNameSigns.pdf
Tuesday, January 27, 2004 12:39 PM 159575 204-720021-01_SignPanels-ExtrudedAlumType.pdf
Tuesday, January 27, 2004 12:40 PM 104704 204-729001_AppOfTypesA&BPosts.pdf
Tuesday, January 27, 2004 12:31 PM 175191 204-780001-01_TypicalPvmtMrkings.pdf
Tuesday, January 27, 2004 12:31 PM 101279 204-781001-02_TypicalAppRaisedReflcPvmtMrkrs.pdf
Tuesday, January 27, 2004 12:26 PM 102029 204-805001_ElecSrvcInstallDetails.pdf
Tuesday, January 27, 2004 12:26 PM 45497 204-813001-01_JunctionBoxes.pdf
Tuesday, January 27, 2004 12:27 PM 89836 204-814001_ConcHandholes.pdf
Tuesday, January 27, 2004 12:27 PM 117545 204-814006_DblHandholes.pdf
Tuesday, January 27, 2004 12:28 PM 123069 204-857001_StdPhaseDesignationDiagrams&PhaseSeq.pdf
Tuesday, January 27, 2004 12:28 PM 81117 204-857006_SupervisedRRInterconnectCircuit-.pdf
Tuesday, January 27, 2004 12:28 PM 87036 204-877001-01_SteelMastArmAssembly&Pole.pdf
Tuesday, January 27, 2004 12:28 PM 105447 204-877006-01_SteelMastArmAssembly&PoleWithDualMastArms.pdf
Tuesday, January 27, 2004 12:28 PM 117692 204-877011-01_SteelComboMastArmAssembly&Pole.pdf
Tuesday, January 27, 2004 12:29 PM 191534 204-878001-02_ConcreteFoundationDetails.pdf
Tuesday, January 27, 2004 12:29 PM 119894 204-880001_SpanWireMountSignals&FlashBeaconInstall.pdf
Tuesday, January 27, 2004 12:29 PM 76503 204-880006_TrfSignalMountDetails-Post&BracketMount.pdf
Tuesday, January 27, 2004 12:30 PM 118333 204-886001_DetectorLoopInstallations.pdf
Tuesday, January 27, 2004 12:30 PM 62053 204-886006_TypicalLayoutsForDetectionLoops.pdf
Tuesday, January 27, 2004 12:22 PM 300719 204-BLR10-3_PCCPvmtSpecialDetails.pdf
Tuesday, January 27, 2004 12:22 PM 216026 204-BLR14-7_PCCPvmt-NonReinf.pdf
Tuesday, January 27, 2004 12:23 PM 147231 204-BLR17-3_TrafCntrlDevices-DayLaborConstr.pdf
Tuesday, January 27, 2004 12:23 PM 149205 204-BLR18-4_TrafCntrlDevices-DayLaborMaint.pdf
Tuesday, January 27, 2004 12:20 PM 129121 204-BLR2-2_CombSect&ROWMarkers.pdf
Tuesday, January 27, 2004 12:24 PM 254275 204-BLR20-4_TrafBarrierTermType5R.pdf
Tuesday, January 27, 2004 12:24 PM 122664 204-BLR21-6_TypAppTrafCntrlDevices-ConstrOnRuralLocalHwys.pdf
Tuesday, January 27, 2004 12:24 PM 104584 204-BLR22-4_TypAppTrafCntrlDevices-ConstrOnRuralLocalHwys(2L2W-RdClsdToThruTraf).pdf
Tuesday, January 27, 2004 12:25 PM 230928 204-BLR23-1_TrafBarrierTermType1.pdf
Tuesday, January 27, 2004 12:25 PM 91660 204-BLR24-1_MailboxTurn-LocalRds.pdf
Tuesday, January 27, 2004 12:25 PM 28243 204-BLR25_Type1ABarrForNonNHSRts.pdf
Tuesday, January 27, 2004 12:21 PM 93646 204-BLR6-5_SectMarkers.pdf
Tuesday, April 12, 2005 9:24 AM <dir> _vti_cnf